Strona główna
METAR-TAF:

METAR-TAF

Lotnisko :

Port lotniczy Shoreham

Brighton, Anglia

Szerokość geograficzna: 50-50N, Długość geograficzna: 000-17W, wysokość: 2 m

Aktualna obserwacja pogody

Raport powstał 28 minut temu, godzina 11:20 UTC
Wiatr 6 kt od północ
Temperatura 7°C
Wilgotność 87%
Ciśnienie 1018 hPa
Widzialność 10 km lub więcej
Przerywane chmury na wysokości 2200 ft

METAR: EGKA 271120Z 35006KT 9999 BKN022 07/05 Q1018

czas: 11:48 (11:48 UTC)

Prognoza

Raport powstał 48 minut temu, godzina 11:00 UTC
Prognoza ważna od 27 godzina 12 UTC do 27 godzina 20 UTC
Wiatr 9 kt od północ
Widzialność 10 km lub więcej
Rozproszone chmury na wysokości 1400 ft
Prawdopodobieństwo 30% :
Przejściowo
od 27 godzina 12 UTC do 27 godzina 20 UTC
Widzialność: 7000 m
Przerywane chmury na wysokości 900 ft
słaby deszcz, mżawka

TAF: EGKA 271100Z 2712/2720 01009KT 9999 SCT014 PROB30 TEMPO 2712/2720 7000 -RADZ BKN009

Obserwacja i prognoza pogody dla ponad 4000 lotnisk (raport METAR i TAF).

Dostępne stacje oznaczono żółtymi i czerwonymi punktami na mapie.

Najedź kursorem aby zobaczyć nazwę stacji.

Kliknij aby zobaczyć obserwacje i prognozy pogody.

Aby zmienić mapę: kliknij na zielony przycisk z czarnym krzyżykiem, aby powiększyć; na zielony przycisk z myślnikiem, aby pomniejszyć; na zielone strzałki, aby przejść do map sąsiednich.


METAR-TAF: